Time;durP1;ratioP1;P1;durP2;ratioP2;P2;SDS_P1;SDS_P2;PMS_P1;PMS_P2;Temp;Humidity;BMP_temperature;BMP_pressure;BME280_temperature;BME280_humidity;BME280_pressure;Samples;Min_cycle;Max_cycle;Signal;HPM_P1;HPM_P2
2022/04/18 00:01:55;;;;;;;25.83;24.35;;;7.10;64.50;;;;;;5094056;28;20198;-74
2022/04/18 00:04:22;;;;;;;26.35;24.85;;;7.00;64.90;;;;;;5094136;28;20735;-74
2022/04/18 00:06:49;;;;;;;28.13;26.52;;;7.00;65.20;;;;;;5093990;28;20295;-74
2022/04/18 00:09:16;;;;;;;27.27;25.65;;;7.00;65.30;;;;;;5093289;28;20206;-73
2022/04/18 00:11:43;;;;;;;26.85;25.23;;;6.90;65.60;;;;;;5093957;28;20509;-74
2022/04/18 00:14:11;;;;;;;25.83;24.33;;;6.90;65.80;;;;;;5093756;28;20227;-74
2022/04/18 00:16:39;;;;;;;26.27;24.67;;;6.90;65.40;;;;;;5093354;28;20206;-74
2022/04/18 00:19:06;;;;;;;26.85;25.20;;;6.90;65.50;;;;;;5093541;28;20582;-74
2022/04/18 00:21:33;;;;;;;26.25;24.95;;;6.80;65.90;;;;;;5093222;28;20283;-74
2022/04/18 00:24:00;;;;;;;26.48;25.05;;;6.70;66.20;;;;;;5093752;28;20233;-74
2022/04/18 00:26:26;;;;;;;26.55;25.15;;;6.60;66.40;;;;;;5093515;28;20658;-74
2022/04/18 00:28:53;;;;;;;25.83;24.42;;;6.60;66.60;;;;;;5093413;28;20234;-74
2022/04/18 00:31:20;;;;;;;26.05;24.45;;;6.60;67.00;;;;;;5092802;28;20227;-74
2022/04/18 00:33:48;;;;;;;26.65;24.95;;;6.60;67.00;;;;;;5093421;28;20691;-74
2022/04/18 00:36:15;;;;;;;25.73;24.33;;;6.60;66.80;;;;;;5093457;28;20204;-74
2022/04/18 00:38:44;;;;;;;25.70;24.30;;;6.60;66.90;;;;;;5093535;28;20200;-74
2022/04/18 00:41:11;;;;;;;26.90;25.30;;;6.60;66.70;;;;;;5093010;28;20198;-74
2022/04/18 00:43:40;;;;;;;26.90;25.27;;;6.60;66.70;;;;;;5093340;28;20229;-74
2022/04/18 00:46:07;;;;;;;26.67;25.17;;;6.60;66.80;;;;;;5093294;28;20279;-74
2022/04/18 00:48:34;;;;;;;26.48;25.05;;;6.60;66.80;;;;;;5093255;28;20292;-74
2022/04/18 00:51:04;;;;;;;26.27;24.70;;;6.50;67.10;;;;;;5092548;28;20223;-74
2022/04/18 00:53:32;;;;;;;25.73;24.20;;;6.50;67.20;;;;;;5093054;28;20221;-74
2022/04/18 00:56:00;;;;;;;26.60;24.90;;;6.40;67.50;;;;;;5092772;28;20206;-74
2022/04/18 00:58:27;;;;;;;27.60;26.13;;;6.30;67.80;;;;;;5092871;28;20632;-74
2022/04/18 01:00:54;;;;;;;26.63;25.13;;;6.30;67.90;;;;;;5092588;28;20791;-74
2022/04/18 01:03:21;;;;;;;27.05;25.45;;;6.20;68.30;;;;;;5092991;28;20225;-73
2022/04/18 01:05:48;;;;;;;25.92;24.52;;;6.10;68.80;;;;;;5092954;28;20305;-74
2022/04/18 01:08:17;;;;;;;27.98;26.45;;;6.10;68.80;;;;;;5092595;28;20203;-74
2022/04/18 01:10:45;;;;;;;27.83;26.02;;;6.00;68.80;;;;;;5092395;28;20666;-74
2022/04/18 01:13:12;;;;;;;26.00;24.60;;;6.00;68.90;;;;;;5092831;28;20218;-74
2022/04/18 01:15:39;;;;;;;25.63;24.13;;;6.00;68.90;;;;;;5092714;28;20614;-74
2022/04/18 01:18:06;;;;;;;27.02;25.45;;;6.00;68.90;;;;;;5092698;28;20197;-74
2022/04/18 01:20:35;;;;;;;26.70;25.05;;;6.00;69.00;;;;;;5091881;28;20197;-74
2022/04/18 01:23:06;;;;;;;26.77;25.27;;;6.00;69.00;;;;;;5092643;28;20308;-74
2022/04/18 01:31:01;;;;;;;26.60;25.00;;;5.90;69.30;;;;;;5092213;28;20202;-74
2022/04/18 01:33:29;;;;;;;25.88;24.38;;;5.90;69.20;;;;;;5092577;28;20304;-74
2022/04/18 01:35:56;;;;;;;26.38;24.98;;;5.90;69.60;;;;;;5092500;28;20544;-73
2022/04/18 01:38:24;;;;;;;26.98;25.48;;;5.80;69.70;;;;;;5092446;28;20307;-73
2022/04/18 01:40:51;;;;;;;26.25;24.67;;;5.80;69.70;;;;;;5090559;28;20246;-73
2022/04/18 01:43:18;;;;;;;27.25;25.65;;;5.80;69.60;;;;;;5092446;28;20227;-73
2022/04/18 01:45:45;;;;;;;27.65;26.05;;;5.80;69.60;;;;;;5092164;28;20200;-73
2022/04/18 01:48:12;;;;;;;27.13;25.33;;;5.70;69.80;;;;;;5092377;28;20224;-73
2022/04/18 01:50:39;;;;;;;25.30;23.90;;;5.70;70.50;;;;;;5091690;28;20205;-73
2022/04/18 01:53:07;;;;;;;26.05;24.55;;;5.60;70.80;;;;;;5092219;28;20225;-73
2022/04/18 01:55:35;;;;;;;26.92;25.40;;;5.50;71.00;;;;;;5092554;28;20203;-73
2022/04/18 01:58:05;;;;;;;26.98;25.55;;;5.40;71.10;;;;;;5092178;28;20201;-74
2022/04/18 02:00:32;;;;;;;26.80;25.30;;;5.50;71.10;;;;;;5091519;28;20201;-73
2022/04/18 02:02:59;;;;;;;26.85;25.25;;;5.50;71.00;;;;;;5092201;28;20216;-74
2022/04/18 02:05:25;;;;;;;28.02;26.33;;;5.40;71.60;;;;;;5092093;28;20683;-74
2022/04/18 02:07:53;;;;;;;26.75;25.25;;;5.30;73.00;;;;;;5095601;28;20201;-73
2022/04/18 02:10:20;;;;;;;26.83;25.33;;;5.30;72.60;;;;;;5095558;28;20677;-74
2022/04/18 02:12:48;;;;;;;26.27;24.77;;;5.30;72.40;;;;;;5096048;28;20224;-74
2022/04/18 02:15:16;;;;;;;27.20;25.52;;;5.30;72.20;;;;;;5096062;28;20301;-74
2022/04/18 02:17:43;;;;;;;26.83;25.17;;;5.20;72.00;;;;;;5095967;28;20203;-74
2022/04/18 02:20:10;;;;;;;26.52;25.10;;;5.30;71.90;;;;;;5095603;28;20195;-74
2022/04/18 02:22:37;;;;;;;26.60;25.10;;;5.30;71.80;;;;;;5095989;28;20196;-74
2022/04/18 02:25:05;;;;;;;27.60;26.00;;;5.30;71.80;;;;;;5095865;28;20292;-74
2022/04/18 02:27:32;;;;;;;27.02;25.52;;;5.30;71.80;;;;;;5096095;28;20628;-74
2022/04/18 02:30:00;;;;;;;27.05;25.55;;;5.30;71.90;;;;;;5095380;28;20283;-74
2022/04/18 02:35:12;;;;;;;27.20;25.50;;;5.20;71.80;;;;;;5095956;28;20192;-74
2022/04/18 02:37:39;;;;;;;27.60;26.10;;;5.10;72.40;;;;;;5095810;28;20289;-74
2022/04/18 02:40:08;;;;;;;26.65;25.02;;;5.00;72.70;;;;;;5095179;28;20283;-74
2022/04/18 02:42:35;;;;;;;27.58;26.08;;;5.00;72.60;;;;;;5095836;28;20199;-74
2022/04/18 02:45:03;;;;;;;26.90;25.30;;;5.00;72.70;;;;;;5095673;28;20197;-74
2022/04/18 02:47:30;;;;;;;26.77;25.13;;;4.90;73.50;;;;;;5095799;28;20203;-73
2022/04/18 02:49:57;;;;;;;26.75;25.15;;;4.90;73.00;;;;;;5095003;28;20196;-74
2022/04/18 02:52:24;;;;;;;26.20;24.70;;;5.00;72.60;;;;;;5095323;28;20227;-73
2022/04/18 02:54:51;;;;;;;26.45;24.75;;;5.00;72.30;;;;;;5095352;28;20196;-74
2022/04/18 02:57:17;;;;;;;27.40;25.80;;;4.90;72.70;;;;;;5095400;28;20196;-74
2022/04/18 02:59:44;;;;;;;26.00;24.60;;;4.90;73.10;;;;;;5095020;28;20202;-74
2022/04/18 03:02:13;;;;;;;27.75;26.25;;;4.80;73.30;;;;;;5095523;28;20283;-74
2022/04/18 03:04:39;;;;;;;26.75;25.02;;;4.80;73.40;;;;;;5095381;28;20223;-74
2022/04/18 03:07:06;;;;;;;27.55;25.90;;;4.80;73.60;;;;;;5095192;28;20283;-74
2022/04/18 03:09:34;;;;;;;27.35;25.77;;;4.80;73.50;;;;;;5094444;28;20689;-74
2022/04/18 03:12:02;;;;;;;26.77;25.27;;;4.70;73.80;;;;;;5095333;28;20222;-74
2022/04/18 03:14:29;;;;;;;27.13;25.63;;;4.70;74.10;;;;;;5094947;28;20216;-74
2022/04/18 03:16:56;;;;;;;26.63;25.08;;;4.60;74.60;;;;;;5094598;28;20204;-74
2022/04/18 03:19:25;;;;;;;26.48;24.88;;;4.50;74.70;;;;;;5094281;28;20193;-74
2022/04/18 03:21:52;;;;;;;27.33;25.83;;;4.50;74.70;;;;;;5094769;28;20303;-74
2022/04/18 03:24:19;;;;;;;27.70;26.10;;;4.50;74.60;;;;;;5094857;28;20227;-74
2022/04/18 03:26:46;;;;;;;26.85;25.35;;;4.50;74.70;;;;;;5094850;28;20244;-74
2022/04/18 03:29:13;;;;;;;27.55;25.90;;;4.50;74.70;;;;;;5094258;28;20207;-73
2022/04/18 03:31:40;;;;;;;28.48;26.77;;;4.60;74.70;;;;;;5094622;28;20668;-74
2022/04/18 03:34:07;;;;;;;27.42;25.92;;;4.50;74.60;;;;;;5094481;28;20211;-74
2022/04/18 03:42:03;;;;;;;26.02;24.63;;;4.40;75.10;;;;;;5094682;28;20317;-74
2022/04/18 03:44:30;;;;;;;27.92;26.17;;;4.30;75.50;;;;;;5094439;28;20219;-74
2022/04/18 03:46:57;;;;;;;26.83;25.10;;;4.30;75.70;;;;;;5094326;28;20196;-74
2022/04/18 03:49:24;;;;;;;26.73;25.20;;;4.30;75.40;;;;;;5093825;28;20286;-74
2022/04/18 03:51:53;;;;;;;26.60;24.98;;;4.30;75.40;;;;;;5094293;28;20221;-74
2022/04/18 03:54:19;;;;;;;26.02;24.30;;;4.30;75.60;;;;;;5094344;28;20215;-73
2022/04/18 03:56:46;;;;;;;26.95;25.33;;;4.20;75.90;;;;;;5094178;28;21002;-74
2022/04/18 03:59:15;;;;;;;26.65;24.95;;;4.20;75.90;;;;;;5093609;28;20201;-74
2022/04/18 04:01:42;;;;;;;27.35;25.80;;;4.10;76.00;;;;;;5093984;28;20265;-74
2022/04/18 04:04:09;;;;;;;26.52;24.92;;;4.20;75.80;;;;;;5094379;28;20307;-73
2022/04/18 04:06:36;;;;;;;27.83;26.33;;;4.20;75.60;;;;;;5094146;28;20207;-74
2022/04/18 04:09:04;;;;;;;28.10;26.55;;;4.20;75.60;;;;;;5093918;28;20287;-74
2022/04/18 04:11:31;;;;;;;27.95;26.30;;;4.10;75.70;;;;;;5093440;28;20195;-74
2022/04/18 04:13:58;;;;;;;28.25;26.65;;;4.00;76.00;;;;;;5093673;28;20707;-73
2022/04/18 04:16:25;;;;;;;28.10;26.60;;;3.90;76.40;;;;;;5093559;28;20204;-74
2022/04/18 04:18:52;;;;;;;28.35;26.23;;;4.00;76.20;;;;;;5093866;28;20210;-74
2022/04/18 04:21:19;;;;;;;27.80;26.20;;;4.00;76.20;;;;;;5092999;28;20200;-73
2022/04/18 04:23:45;;;;;;;27.83;25.98;;;4.00;76.30;;;;;;5093717;28;20295;-73
2022/04/18 04:26:14;;;;;;;28.65;27.05;;;4.00;76.50;;;;;;5093483;28;20192;-73
2022/04/18 04:28:40;;;;;;;28.40;26.48;;;3.90;76.80;;;;;;5093400;28;20569;-74
2022/04/18 04:31:07;;;;;;;28.65;26.92;;;3.90;77.20;;;;;;5092813;28;20557;-73
2022/04/18 04:33:34;;;;;;;27.65;26.00;;;3.90;77.20;;;;;;5093379;28;20562;-74
2022/04/18 04:36:01;;;;;;;29.45;27.75;;;3.90;77.30;;;;;;5093333;28;20613;-74
2022/04/18 04:38:28;;;;;;;28.73;27.02;;;3.90;77.30;;;;;;5093454;28;20556;-73
2022/04/18 04:40:57;;;;;;;28.77;27.08;;;4.00;77.00;;;;;;5093006;28;20214;-74
2022/04/18 04:43:28;;;;;;;28.05;26.17;;;4.00;77.20;;;;;;5093409;28;20298;-74
2022/04/18 04:45:55;;;;;;;27.55;25.85;;;4.00;77.40;;;;;;5093441;28;20272;-74
2022/04/18 04:48:22;;;;;;;28.35;26.65;;;3.90;77.50;;;;;;5093117;28;20195;-74
2022/04/18 04:50:49;;;;;;;28.05;26.45;;;4.00;77.50;;;;;;5092675;28;20627;-74
2022/04/18 04:53:16;;;;;;;28.17;26.58;;;4.00;77.20;;;;;;5093063;28;20249;-73
2022/04/18 04:55:43;;;;;;;27.80;26.08;;;4.10;76.80;;;;;;5092888;28;20195;-74
2022/04/18 04:58:10;;;;;;;27.60;25.98;;;4.10;76.70;;;;;;5093168;28;20289;-74
2022/04/18 05:00:39;;;;;;;28.27;26.50;;;4.10;76.70;;;;;;5092664;28;20212;-74
2022/04/18 05:03:07;;;;;;;26.70;25.30;;;4.10;76.60;;;;;;5093041;28;20302;-73
2022/04/18 05:05:34;;;;;;;28.65;26.85;;;4.10;76.60;;;;;;5092923;28;20283;-73
2022/04/18 05:08:01;;;;;;;27.02;25.52;;;4.10;76.80;;;;;;5092756;28;20199;-74
2022/04/18 05:10:28;;;;;;;28.40;26.70;;;4.00;77.20;;;;;;5092325;28;20566;-73
2022/04/18 05:12:55;;;;;;;28.40;26.75;;;4.10;77.20;;;;;;5092647;28;20583;-74
2022/04/18 05:15:22;;;;;;;29.00;27.05;;;4.30;76.80;;;;;;5092433;28;20246;-74
2022/04/18 05:17:50;;;;;;;27.52;25.83;;;4.40;76.40;;;;;;5092813;28;20287;-74
2022/04/18 05:20:17;;;;;;;27.35;25.75;;;4.50;76.30;;;;;;5091857;28;20682;-74
2022/04/18 05:22:44;;;;;;;27.20;25.50;;;4.50;76.40;;;;;;5092551;28;20212;-74
2022/04/18 05:25:11;;;;;;;27.67;26.08;;;4.50;76.30;;;;;;5092470;28;20557;-74
2022/04/18 05:27:38;;;;;;;26.92;25.33;;;4.50;76.30;;;;;;5092617;28;20283;-74
2022/04/18 05:30:06;;;;;;;27.75;26.25;;;4.50;75.80;;;;;;5091866;28;20195;-74
2022/04/18 05:32:33;;;;;;;28.83;27.05;;;4.50;76.20;;;;;;5092406;28;20215;-74
2022/04/18 05:35:01;;;;;;;27.95;26.35;;;4.60;76.10;;;;;;5092392;28;20200;-74
2022/04/18 05:37:28;;;;;;;29.05;27.25;;;4.70;75.60;;;;;;5092446;28;20203;-74
2022/04/18 05:39:55;;;;;;;28.45;26.52;;;4.80;74.90;;;;;;5091757;28;20229;-74
2022/04/18 05:42:24;;;;;;;31.05;29.10;;;4.90;74.50;;;;;;5091456;28;20203;-74
2022/04/18 05:44:51;;;;;;;28.85;26.95;;;5.10;74.00;;;;;;5092286;28;20204;-74
2022/04/18 05:47:18;;;;;;;27.65;25.95;;;5.30;73.40;;;;;;5092344;28;20198;-74
2022/04/18 05:49:44;;;;;;;27.25;25.65;;;5.40;72.90;;;;;;5091535;28;20203;-74
2022/04/18 05:52:15;;;;;;;28.85;27.15;;;5.50;72.50;;;;;;5092245;28;20421;-74
2022/04/18 05:54:42;;;;;;;27.52;25.88;;;5.70;71.80;;;;;;5092084;28;20256;-74
2022/04/18 05:57:09;;;;;;;30.75;29.05;;;5.70;71.00;;;;;;5092435;28;20592;-74
2022/04/18 05:59:36;;;;;;;28.08;26.48;;;5.80;70.80;;;;;;5091685;28;20212;-74
2022/04/18 06:02:03;;;;;;;28.15;26.65;;;5.80;70.80;;;;;;5092066;28;20655;-73
2022/04/18 06:04:30;;;;;;;28.88;27.23;;;5.80;70.40;;;;;;5091922;28;20240;-74
2022/04/18 06:06:57;;;;;;;27.17;25.48;;;6.00;70.10;;;;;;5092198;28;20212;-74
2022/04/18 06:09:25;;;;;;;27.58;25.83;;;6.10;69.80;;;;;;5091263;28;20206;-74
2022/04/18 06:11:52;;;;;;;27.33;25.63;;;6.30;69.30;;;;;;5092109;28;20197;-74
2022/04/18 06:14:19;;;;;;;31.33;29.48;;;6.50;68.90;;;;;;5091736;28;20251;-74
2022/04/18 06:16:46;;;;;;;29.30;27.20;;;6.60;68.30;;;;;;5091469;28;20716;-74
2022/04/18 06:19:13;;;;;;;27.90;26.30;;;6.80;67.90;;;;;;5091364;28;20199;-74
2022/04/18 06:21:41;;;;;;;30.73;28.92;;;6.90;67.40;;;;;;5091855;28;20204;-74
2022/04/18 06:24:07;;;;;;;29.70;28.00;;;7.10;67.10;;;;;;5091890;28;20580;-74
2022/04/18 06:26:36;;;;;;;28.33;26.63;;;7.10;66.70;;;;;;5092089;28;20205;-74
2022/04/18 06:29:03;;;;;;;28.17;26.42;;;7.30;66.30;;;;;;5091883;28;20206;-74
2022/04/18 06:31:30;;;;;;;29.60;27.80;;;7.40;65.50;;;;;;5091904;28;20202;-74
2022/04/18 06:33:57;;;;;;;29.10;27.17;;;7.50;65.00;;;;;;5091692;28;20700;-74
2022/04/18 06:36:23;;;;;;;28.50;26.90;;;7.70;64.50;;;;;;5091841;28;20197;-74
2022/04/18 06:38:50;;;;;;;28.50;26.80;;;7.80;64.30;;;;;;5091928;28;20195;-74
2022/04/18 06:41:17;;;;;;;29.70;27.90;;;7.90;64.10;;;;;;5091357;28;20199;-74
2022/04/18 06:43:45;;;;;;;31.55;29.73;;;8.00;63.30;;;;;;5091744;28;20218;-74
2022/04/18 06:46:12;;;;;;;29.55;27.95;;;8.10;63.00;;;;;;5091833;28;20642;-74
2022/04/18 06:48:39;;;;;;;29.38;27.38;;;8.20;62.70;;;;;;5091658;28;20319;-74
2022/04/18 06:51:06;;;;;;;28.85;27.02;;;8.30;62.30;;;;;;5091214;28;20200;-74
2022/04/18 06:53:33;;;;;;;28.58;26.77;;;8.50;61.60;;;;;;5094042;28;20319;-74
2022/04/18 06:58:45;;;;;;;29.20;27.30;;;8.60;60.80;;;;;;5095357;28;20194;-74
2022/04/18 07:01:12;;;;;;;29.85;27.90;;;8.80;60.60;;;;;;5094997;28;20286;-74
2022/04/18 07:03:39;;;;;;;30.98;29.13;;;9.00;60.30;;;;;;5095367;28;20453;-74
2022/04/18 07:06:06;;;;;;;28.08;26.30;;;9.10;59.40;;;;;;5095417;28;20202;-74
2022/04/18 07:08:33;;;;;;;28.85;26.92;;;9.20;59.10;;;;;;5094939;28;20252;-74
2022/04/18 07:11:00;;;;;;;29.30;27.65;;;9.30;58.80;;;;;;5094617;28;20216;-74
2022/04/18 07:13:27;;;;;;;28.45;26.75;;;9.40;58.60;;;;;;5094986;28;20641;-74
2022/04/18 07:15:55;;;;;;;29.40;27.60;;;9.40;57.90;;;;;;5094743;28;20291;-74
2022/04/18 07:18:22;;;;;;;28.30;26.33;;;9.40;57.90;;;;;;5095092;28;20542;-74
2022/04/18 07:20:49;;;;;;;29.50;27.80;;;9.60;58.10;;;;;;5094284;28;20199;-74
2022/04/18 07:23:16;;;;;;;29.35;27.50;;;9.90;57.30;;;;;;5094868;28;20211;-74
2022/04/18 07:25:42;;;;;;;30.80;28.95;;;10.10;56.70;;;;;;5094754;28;20200;-74
2022/04/18 07:28:09;;;;;;;28.10;26.50;;;10.10;56.50;;;;;;5094958;28;20298;-74
2022/04/18 07:30:36;;;;;;;31.05;29.15;;;10.10;56.50;;;;;;5094332;28;20234;-74
2022/04/18 07:33:05;;;;;;;28.77;27.08;;;10.10;56.60;;;;;;5094525;28;20309;-74
2022/04/18 07:35:32;;;;;;;28.98;27.17;;;10.20;56.60;;;;;;5094778;28;20207;-74
2022/04/18 07:40:43;;;;;;;30.33;28.53;;;10.50;56.30;;;;;;5094046;28;20667;-74
2022/04/18 07:43:10;;;;;;;29.47;27.67;;;10.60;55.50;;;;;;5094497;28;20556;-74
2022/04/18 07:45:38;;;;;;;27.42;25.77;;;10.60;55.60;;;;;;5094485;28;20492;-74
2022/04/18 07:48:07;;;;;;;28.27;26.63;;;10.50;55.50;;;;;;5094511;28;20203;-74
2022/04/18 07:53:19;;;;;;;30.43;28.30;;;10.60;55.10;;;;;;5094443;28;20265;-74
2022/04/18 07:55:48;;;;;;;28.70;26.90;;;10.70;54.80;;;;;;5094415;28;20450;-74
2022/04/18 07:58:14;;;;;;;29.30;27.50;;;10.80;54.50;;;;;;5094210;28;21038;-74
2022/04/18 08:00:41;;;;;;;27.83;26.13;;;11.00;53.00;;;;;;5093714;28;20877;-74
2022/04/18 08:03:10;;;;;;;28.73;27.03;;;11.10;51.90;;;;;;5093973;28;20581;-74
2022/04/18 08:05:36;;;;;;;27.10;25.60;;;11.10;51.30;;;;;;5093247;28;20831;-74
2022/04/18 08:08:04;;;;;;;26.30;24.80;;;11.20;51.30;;;;;;5094067;28;20460;-74
2022/04/18 08:10:33;;;;;;;27.40;25.87;;;11.20;51.20;;;;;;5093689;28;20504;-74
2022/04/18 08:13:00;;;;;;;28.00;26.30;;;11.40;51.00;;;;;;5094008;28;20499;-74
2022/04/18 08:15:27;;;;;;;27.83;26.20;;;11.50;50.00;;;;;;5093589;28;20482;-74
2022/04/18 08:17:54;;;;;;;26.80;25.23;;;11.50;49.90;;;;;;5093825;28;20908;-74
2022/04/18 08:20:22;;;;;;;26.23;24.73;;;11.70;49.90;;;;;;5093292;28;20454;-74
2022/04/18 08:22:49;;;;;;;27.43;25.73;;;12.00;49.40;;;;;;5093891;28;20549;-74
2022/04/18 08:25:16;;;;;;;28.07;26.37;;;12.20;48.90;;;;;;5093662;28;20959;-74
2022/04/18 08:27:43;;;;;;;28.10;26.40;;;12.30;48.80;;;;;;5093613;28;20821;-74
2022/04/18 08:30:11;;;;;;;27.70;25.67;;;12.30;48.70;;;;;;5092964;28;20541;-74
2022/04/18 08:32:38;;;;;;;27.90;26.30;;;12.40;48.90;;;;;;5093738;28;20980;-74
2022/04/18 08:35:06;;;;;;;29.40;27.50;;;12.60;48.70;;;;;;5093465;28;20477;-74
2022/04/18 08:37:36;;;;;;;27.30;25.50;;;12.50;48.50;;;;;;5093504;28;20519;-74
2022/04/18 08:40:04;;;;;;;27.57;25.87;;;12.70;48.40;;;;;;5092883;28;20446;-74
2022/04/18 08:42:35;;;;;;;27.20;25.60;;;12.70;49.30;;;;;;5093387;28;20536;-74
2022/04/18 08:45:04;;;;;;;28.00;26.30;;;12.70;49.90;;;;;;5093473;28;20890;-74
2022/04/18 08:53:03;;;;;;;29.10;27.30;;;12.80;49.40;;;;;;5093290;28;20937;-74
2022/04/18 08:55:30;;;;;;;29.17;27.37;;;12.70;49.30;;;;;;5093202;28;20478;-74
2022/04/18 08:57:57;;;;;;;30.07;28.13;;;12.70;49.40;;;;;;5093263;28;20827;-74
2022/04/18 09:00:24;;;;;;;28.87;27.07;;;12.70;49.40;;;;;;5092508;28;20939;-74
2022/04/18 09:02:51;;;;;;;29.00;27.20;;;12.70;49.20;;;;;;5093097;28;20462;-74
2022/04/18 09:05:21;;;;;;;29.20;27.30;;;12.60;49.70;;;;;;5092918;28;20532;-74
2022/04/18 09:07:59;;;;;;;30.00;28.30;;;12.70;49.60;;;;;;5093018;28;20457;-74
2022/04/18 09:10:27;;;;;;;27.67;25.97;;;12.80;49.00;;;;;;5092385;28;20886;-74
2022/04/18 09:13:02;;;;;;;28.47;26.60;;;12.80;48.60;;;;;;5092981;28;20465;-74
2022/04/18 09:15:37;;;;;;;30.57;28.57;;;12.90;48.50;;;;;;5092446;28;20487;-74
2022/04/18 09:18:17;;;;;;;27.53;25.93;;;12.80;48.80;;;;;;5092888;28;20544;-74
2022/04/18 09:20:45;;;;;;;26.80;25.20;;;12.90;48.60;;;;;;5092125;28;20453;-74
2022/04/18 09:23:24;;;;;;;27.43;25.80;;;12.90;48.30;;;;;;5092568;28;20466;-74
2022/04/18 09:25:58;;;;;;;28.00;26.30;;;13.10;48.50;;;;;;5092602;28;20456;-74
2022/04/18 09:28:26;;;;;;;27.07;25.47;;;13.10;47.70;;;;;;5092392;28;20536;-74
2022/04/18 09:31:02;;;;;;;27.80;26.10;;;13.10;47.70;;;;;;5092058;28;20946;-74
2022/04/18 09:33:30;;;;;;;28.90;27.30;;;13.30;47.50;;;;;;5092626;28;20553;-74
2022/04/18 09:36:18;;;;;;;27.67;25.97;;;13.10;48.10;;;;;;5092455;28;20461;-74
2022/04/18 09:38:48;;;;;;;28.80;27.10;;;13.20;47.50;;;;;;5092370;28;20528;-74
2022/04/18 09:41:21;;;;;;;27.13;25.37;;;13.30;47.20;;;;;;5091978;28;20853;-74
2022/04/18 09:43:50;;;;;;;26.50;25.00;;;13.40;47.20;;;;;;5092366;28;20875;-74
2022/04/18 09:46:17;;;;;;;28.40;26.80;;;13.40;47.10;;;;;;5092401;28;20454;-74
2022/04/18 09:48:46;;;;;;;29.70;28.00;;;13.50;47.10;;;;;;5092143;28;20911;-74
2022/04/18 09:51:15;;;;;;;28.70;27.00;;;13.60;46.70;;;;;;5091833;28;20450;-74
2022/04/18 09:53:44;;;;;;;27.03;25.33;;;13.80;46.40;;;;;;5092116;28;20552;-74
2022/04/18 09:56:17;;;;;;;27.43;25.83;;;13.80;46.20;;;;;;5092356;28;20457;-74
2022/04/18 09:58:44;;;;;;;28.00;26.30;;;13.90;45.60;;;;;;5092140;28;20453;-74
2022/04/18 10:01:12;;;;;;;28.57;26.87;;;13.90;46.00;;;;;;5091683;28;20528;-75
2022/04/18 10:03:41;;;;;;;29.60;27.93;;;13.80;46.20;;;;;;5091893;28;20509;-74
2022/04/18 10:06:09;;;;;;;28.03;26.33;;;13.90;46.40;;;;;;5092045;28;20493;-74
2022/04/18 10:08:36;;;;;;;27.57;25.87;;;14.00;46.00;;;;;;5091775;28;20461;-74
2022/04/18 10:11:07;;;;;;;29.40;27.60;;;14.20;45.60;;;;;;5091537;28;20457;-74
2022/04/18 10:13:36;;;;;;;28.77;27.07;;;14.30;44.80;;;;;;5092080;28;20492;-74
2022/04/18 10:16:04;;;;;;;27.70;25.90;;;14.40;44.30;;;;;;5091591;28;20453;-75
2022/04/18 10:18:36;;;;;;;27.30;25.70;;;14.30;44.60;;;;;;5092148;28;21341;-74
2022/04/18 10:21:29;;;;;;;27.40;25.80;;;14.50;44.40;;;;;;5091260;28;20453;-75
2022/04/18 10:24:35;;;;;;;26.90;25.40;;;14.40;44.60;;;;;;5092038;28;20613;-74
2022/04/18 10:27:38;;;;;;;27.70;26.10;;;14.40;44.90;;;;;;5091938;28;20452;-75
2022/04/18 10:30:08;;;;;;;26.63;25.13;;;14.60;44.70;;;;;;5095366;28;20930;-75
2022/04/18 10:32:38;;;;;;;28.97;27.27;;;14.80;44.00;;;;;;5096020;28;20457;-74
2022/04/18 10:35:07;;;;;;;27.30;25.60;;;14.80;43.90;;;;;;5095738;28;20485;-75
2022/04/18 10:37:34;;;;;;;27.80;26.00;;;14.80;43.70;;;;;;5095902;28;20456;-74
2022/04/18 10:40:03;;;;;;;26.80;25.30;;;15.00;44.00;;;;;;5095243;28;20553;-75
2022/04/18 10:42:35;;;;;;;27.70;25.90;;;15.10;42.90;;;;;;5095695;28;20496;-75
2022/04/18 10:45:14;;;;;;;27.47;25.87;;;14.90;43.30;;;;;;5095725;28;20819;-75
2022/04/18 10:48:06;;;;;;;27.83;26.00;;;14.80;43.70;;;;;;5095465;28;20760;-75
2022/04/18 10:50:42;;;;;;;28.97;27.10;;;14.70;43.50;;;;;;5094794;28;20510;-75
2022/04/18 10:53:18;;;;;;;26.90;25.30;;;14.70;43.80;;;;;;5095585;28;20982;-74
2022/04/18 10:56:15;;;;;;;27.73;26.03;;;14.90;43.60;;;;;;5095443;28;20473;-74
2022/04/18 10:58:46;;;;;;;29.40;27.63;;;15.00;43.50;;;;;;5052976;28;20498;-75
2022/04/18 11:01:21;;;;;;;28.97;27.27;;;15.10;43.50;;;;;;5086005;28;20866;-75
2022/04/18 11:03:59;;;;;;;28.37;26.67;;;15.10;43.10;;;;;;5095412;28;20465;-75
2022/04/18 11:06:48;;;;;;;29.00;27.27;;;15.40;43.00;;;;;;5095206;28;20480;-74
2022/04/18 11:09:19;;;;;;;29.70;27.90;;;15.60;42.20;;;;;;5094711;28;20457;-74
2022/04/18 11:11:53;;;;;;;27.03;25.53;;;15.60;41.80;;;;;;5095464;28;20442;-74
2022/04/18 11:14:21;;;;;;;27.47;25.70;;;15.80;41.90;;;;;;5095612;28;20896;-75
2022/04/18 11:16:55;;;;;;;28.00;26.30;;;15.80;42.10;;;;;;5096405;28;20543;-75
2022/04/18 11:19:24;;;;;;;32.90;31.13;;;15.90;41.70;;;;;;5094877;28;20496;-75
2022/04/18 11:22:05;;;;;;;30.70;28.90;;;16.10;41.30;;;;;;5095070;28;20453;-75
2022/04/18 11:24:36;;;;;;;27.37;25.77;;;16.20;41.30;;;;;;5094890;28;20830;-74
2022/04/18 11:27:06;;;;;;;27.83;26.07;;;16.20;41.30;;;;;;5094645;28;20507;-75
2022/04/18 11:29:33;;;;;;;29.60;27.80;;;16.20;41.30;;;;;;5094225;28;20490;-75
2022/04/18 11:32:02;;;;;;;29.20;27.30;;;16.20;41.50;;;;;;5094742;28;20446;-75
2022/04/18 11:34:31;;;;;;;28.53;26.83;;;16.30;41.40;;;;;;5094623;28;20572;-75
2022/04/18 11:37:01;;;;;;;27.67;25.97;;;16.30;41.10;;;;;;5094648;28;20541;-75
2022/04/18 11:39:43;;;;;;;28.93;27.23;;;16.20;41.30;;;;;;5092579;28;20460;-75
2022/04/18 11:42:14;;;;;;;28.43;26.63;;;16.40;41.40;;;;;;5094844;28;20450;-75
2022/04/18 11:44:42;;;;;;;29.07;26.80;;;16.20;41.20;;;;;;5094682;28;20487;-75
2022/04/18 11:47:12;;;;;;;29.30;27.60;;;16.10;41.10;;;;;;5094849;28;20536;-75
2022/04/18 11:49:40;;;;;;;28.03;26.33;;;16.20;40.70;;;;;;5094018;28;20457;-75
2022/04/18 11:52:17;;;;;;;28.67;26.60;;;16.10;41.20;;;;;;5094590;28;20969;-74
2022/04/18 11:54:58;;;;;;;27.50;25.90;;;16.10;41.20;;;;;;5094477;28;20568;-74
2022/04/18 11:57:26;;;;;;;28.40;26.60;;;16.10;41.00;;;;;;5095006;28;20449;-75
2022/04/18 11:59:53;;;;;;;29.30;27.70;;;16.10;41.10;;;;;;5095036;28;20449;-75
2022/04/18 12:08:02;;;;;;;27.90;26.20;;;16.10;40.90;;;;;;5094471;28;20437;-75
2022/04/18 12:10:31;;;;;;;27.70;25.93;;;16.10;40.90;;;;;;5093753;28;20473;-75
2022/04/18 12:12:59;;;;;;;28.73;27.03;;;16.10;40.90;;;;;;5093957;28;20469;-74
2022/04/18 12:15:28;;;;;;;28.43;26.73;;;16.20;41.30;;;;;;5093904;28;20564;-75
2022/04/18 12:18:09;;;;;;;27.80;26.20;;;16.20;40.70;;;;;;5093639;28;20536;-75
2022/04/18 12:20:36;;;;;;;27.40;25.80;;;16.40;40.60;;;;;;5093808;28;20449;-76
2022/04/18 12:23:03;;;;;;;28.90;27.20;;;16.40;40.70;;;;;;5093541;28;20480;-76
2022/04/18 12:25:33;;;;;;;26.13;24.70;;;16.50;40.40;;;;;;5093715;28;20811;-76
2022/04/18 12:28:01;;;;;;;28.30;26.53;;;16.70;39.70;;;;;;5093718;28;20451;-76
2022/04/18 12:30:28;;;;;;;26.47;24.87;;;16.70;39.70;;;;;;5093380;28;20528;-76
2022/04/18 12:32:55;;;;;;;28.00;26.30;;;16.70;39.90;;;;;;5093478;28;20481;-76
2022/04/18 12:35:40;;;;;;;27.70;26.10;;;16.60;39.90;;;;;;5093615;28;20473;-75
2022/04/18 12:38:09;;;;;;;28.43;26.73;;;16.80;39.60;;;;;;5093600;28;20453;-75
2022/04/18 12:40:38;;;;;;;27.37;25.80;;;16.80;39.60;;;;;;5092978;28;20450;-75
2022/04/18 12:43:08;;;;;;;26.73;25.23;;;17.00;39.30;;;;;;5093262;28;20892;-75
2022/04/18 12:45:45;;;;;;;27.30;25.77;;;17.00;39.40;;;;;;5093403;28;20445;-75
2022/04/18 12:48:13;;;;;;;26.60;24.93;;;16.90;39.50;;;;;;5093207;28;20457;-75
2022/04/18 12:50:41;;;;;;;27.40;25.87;;;17.10;39.40;;;;;;5092274;28;20450;-75
2022/04/18 12:53:08;;;;;;;27.80;26.30;;;17.00;38.80;;;;;;5093305;28;20465;-75
2022/04/18 12:55:35;;;;;;;27.07;25.57;;;17.10;39.20;;;;;;5093217;28;20488;-75
2022/04/18 12:58:02;;;;;;;28.40;26.60;;;17.10;39.40;;;;;;5093177;28;20537;-75
2022/04/18 13:00:37;;;;;;;27.03;25.43;;;17.20;39.30;;;;;;5092584;28;20975;-75
2022/04/18 13:03:06;;;;;;;28.30;26.50;;;17.20;39.10;;;;;;5092893;28;20473;-75
2022/04/18 13:05:34;;;;;;;28.70;27.00;;;17.30;39.20;;;;;;5093072;28;20946;-75
2022/04/18 13:08:03;;;;;;;27.73;26.17;;;17.30;39.10;;;;;;5093054;28;20819;-75
2022/04/18 13:10:32;;;;;;;27.63;25.97;;;17.30;38.90;;;;;;5092420;28;20450;-75
2022/04/18 13:13:04;;;;;;;28.90;27.10;;;17.50;38.70;;;;;;5092765;28;20552;-75
2022/04/18 13:15:32;;;;;;;29.20;27.53;;;17.80;38.60;;;;;;5092760;28;20488;-74